• Join FlightAware (Why Join?)
  • Login
  • US Flag 
02:22PM EDT


 

Airport Tracker/Info


-or-


 

Live Flight TrackerFlight Track Log ✈ N423S ✈ 06-Apr-2014 ✈ KSBN - KDAY

Flight Track Log - Related Links

Times and Time Zones

All times are in EDT time to prevent confusion due to time zone crossing. See the N423S flight status page for this flight to view local times or setup timezone preferences in your user account.

Time Position Orientation Groundspeed Altitude Reporting Facility
EDT Latitude Longitude Course Direction KTS MPH feet Rate Location/Type
10:49AM 41.6706 -86.3417 139° Southeast 107 123 3,000  Level Chicago Center
10:50AM 41.6469 -86.3064 132° Southeast 107 123 3,900 780 Climbing Chicago Center
10:51AM 41.6281 -86.2783 132° Southeast 107 123 4,700 480 Climbing Chicago Center
10:52AM 41.6053 -86.2500 137° Southeast 107 123 5,000 120 Climbing Chicago Center
10:53AM 41.5141 -86.0884 139° Southeast  Level FlightAware Approximate
10:53AM 41.5742 -86.2117 137° Southeast 128 147 5,000  Level Chicago Center
10:54AM 41.4822 -86.0512 139° Southeast  Level FlightAware Approximate
10:54AM 41.5411 -86.1736 139° Southeast 149 171 5,000  Level Chicago Center
10:55AM 41.5097 -86.1347 137° Southeast 153 176 5,000 -60 Level Chicago Center
10:56AM 41.4761 -86.0978 141° Southeast 153 176 4,900  Descending Chicago Center
10:57AM 41.4381 -86.0506 137° Southeast 154 177 5,000  Climbing Chicago Center
10:58AM 41.4067 -86.0122 138° Southeast 154 177 5,000  Level Chicago Center
10:59AM 41.3744 -85.9731 138° Southeast 154 177 5,000  Level Chicago Center
11:00AM 41.3436 -85.9319 135° Southeast 154 177 5,000  Level Chicago Center
11:01AM 41.3117 -85.8925 137° Southeast 154 177 5,000  Level Chicago Center
11:02AM 41.2803 -85.8536 137° Southeast 154 177 5,000  Level Chicago Center
11:03AM 41.2436 -85.8075 137° Southeast 154 177 5,000  Level Chicago Center
11:04AM 41.2133 -85.7692 136° Southeast 154 177 5,000 -60 Level Chicago Center
11:05AM 41.1819 -85.7325 139° Southeast 154 177 4,900  Descending Chicago Center
11:06AM 41.1506 -85.6950 138° Southeast 154 177 5,000  Climbing Chicago Center
11:07AM 41.1192 -85.6572 138° Southeast 154 177 5,000  Level Chicago Center
11:08AM 41.0881 -85.6194 138° Southeast 154 177 5,000 -60 Level Chicago Center
11:09AM 41.0581 -85.5822 137° Southeast 153 176 4,900 -60 Descending Chicago Center
11:10AM 41.0208 -85.5369 137° Southeast 153 176 4,900  Level Chicago Center
11:11AM 40.9886 -85.4983 138° Southeast 153 176 5,000  Climbing Chicago Center
11:12AM 40.9581 -85.4608 137° Southeast 153 176 5,000  Level Chicago Center
11:13AM 40.9269 -85.4228 137° Southeast 153 176 5,000  Level Chicago Center
11:14AM 40.8958 -85.3833 136° Southeast 153 176 5,000  Level Chicago Center
11:15AM 40.8647 -85.3469 139° Southeast 153 176 5,000  Level Chicago Center
11:16AM 40.8333 -85.3094 138° Southeast 153 176 5,000 -60 Level Chicago Center
11:17AM 40.7961 -85.2658 138° Southeast 153 176 4,900  Descending Chicago Center
11:18AM 40.7650 -85.2281 137° Southeast 153 176 5,000  Climbing Chicago Center
11:20AM 40.7336 -85.1917 139° Southeast 153 176 5,000  Level Chicago Center
11:21AM 40.7036 -85.1528 135° Southeast 153 176 5,000  Level Chicago Center
11:22AM 40.6717 -85.1175 140° Southeast 152 175 5,000  Level Chicago Center
11:23AM 40.6411 -85.0803 137° Southeast 152 175 5,000  Level Chicago Center
11:24AM 40.6108 -85.0425 137° Southeast 152 175 5,000  Level Chicago Center
11:25AM 40.5797 -85.0056 138° Southeast 152 175 5,000  Level Chicago Center
11:26AM 40.5433 -84.9617 137° Southeast 152 175 5,000  Level Chicago Center
11:27AM 40.5119 -84.9244 138° Southeast 152 175 5,000  Level Chicago Center
11:28AM 40.4811 -84.8883 138° Southeast 152 175 5,000  Level Chicago Center
11:29AM 40.4506 -84.8517 138° Southeast 152 175 5,000  Level Chicago Center
11:30AM 40.4197 -84.8122 136° Southeast 152 175 5,000  Level Chicago Center
11:31AM 40.3886 -84.7764 139° Southeast 152 175 5,000  Level Chicago Center
11:32AM 40.3531 -84.7422 144° Southeast 149 171 5,100  Climbing Indianapolis Center
11:33AM 40.3194 -84.7031 138° Southeast 148 170 5,100  Level Indianapolis Center
11:34AM 40.2897 -84.6672 137° Southeast 148 170 5,100  Level Indianapolis Center
11:35AM 40.2578 -84.6308 139° Southeast 148 170 5,100  Level Indianapolis Center
11:36AM 40.2281 -84.5953 138° Southeast 149 171 5,100  Level Indianapolis Center
11:37AM 40.1961 -84.5592 139° Southeast 150 173 5,100  Level Indianapolis Center
11:38AM 40.1647 -84.5203 137° Southeast 149 171 5,100  Level Indianapolis Center
11:39AM 40.1367 -84.4878 138° Southeast 147 169 5,100 -120 Level Indianapolis Center
11:40AM 40.1031 -84.4486 138° Southeast 142 163 4,900 -480 Descending Indianapolis Center
11:41AM 40.0728 -84.4158 140° Southeast 147 169 4,200 -660 Descending Indianapolis Center
11:42AM 40.0392 -84.3767 138° Southeast 157 181 3,700 -480 Descending Indianapolis Center
11:43AM 40.0053 -84.3378 139° Southeast 146 168 3,200 -480 Descending Indianapolis Center
11:44AM 39.9706 -84.3094 148° Southeast 141 162 2,800 -240 Descending Indianapolis Center
11:45AM 39.9444 -84.2967 159° South 104 120 2,800 -300 Level Indianapolis Center
11:46AM 39.9164 -84.2833 160° South 106 122 2,300 -540 Descending Indianapolis Center
11:47AM 39.8894 -84.2594 146° Southeast 97 112 1,700 -480 Descending Indianapolis Center
11:48AM 39.8839 -84.2339 106° East 91 105 1,400 -360 Descending Indianapolis Center